Time;durP1;ratioP1;P1;durP2;ratioP2;P2;SDS_P1;SDS_P2;PMS_P1;PMS_P2;Temp;Humidity;BMP_temperature;BMP_pressure;BME280_temperature;BME280_humidity;BME280_pressure;Samples;Min_cycle;Max_cycle;Signal;HPM_P1;HPM_P2
2021/03/24 00:01:47;;;;;;;18.88;13.38;;;;;;;;;;5030369;28;20049;-83
2021/03/24 00:04:14;;;;;;;18.90;13.77;;;;;;;;;;4998909;28;20036;-82
2021/03/24 00:06:43;;;;;;;21.63;14.38;;;;;;;;;;5012121;28;20041;-83
2021/03/24 00:09:15;;;;;;;20.52;14.30;;;;;;;;;;5030569;28;20418;-83
2021/03/24 00:11:44;;;;;;;19.08;13.48;;;;;;;;;;5052420;28;20045;-83
2021/03/24 00:14:09;;;;;;;18.73;12.90;;;;;;;;;;5042324;28;20029;-82
2021/03/24 00:17:03;;;;;;;19.23;14.18;;;;;;;;;;5055720;28;20024;-83
2021/03/24 00:19:29;;;;;;;18.48;13.77;;;;;;;;;;5055531;28;20047;-83
2021/03/24 00:21:59;;;;;;;22.48;14.43;;;;;;;;;;5071592;28;20052;-82
2021/03/24 00:24:27;;;;;;;17.95;14.05;;;;;;;;;;5072722;28;20045;-82
2021/03/24 00:26:54;;;;;;;22.33;13.95;;;;;;;;;;5069057;28;20063;-82
2021/03/24 00:29:21;;;;;;;18.63;13.88;;;;;;;;;;5056067;28;20025;-82
2021/03/24 00:31:47;;;;;;;20.50;13.93;;;;;;;;;;5055417;28;20024;-83
2021/03/24 00:34:13;;;;;;;19.55;13.48;;;;;;;;;;5038815;28;20033;-83
2021/03/24 00:36:49;;;;;;;19.63;14.43;;;;;;;;;;5055692;28;20009;-83
2021/03/24 00:39:22;;;;;;;19.38;14.95;;;;;;;;;;5056350;28;20032;-83
2021/03/24 00:42:01;;;;;;;20.15;14.73;;;;;;;;;;5056203;28;20025;-83
2021/03/24 00:44:27;;;;;;;19.35;14.98;;;;;;;;;;5073979;28;20513;-84
2021/03/24 00:47:13;;;;;;;21.33;14.45;;;;;;;;;;5057459;28;20047;-84
2021/03/24 00:49:45;;;;;;;18.67;14.75;;;;;;;;;;5072853;28;20057;-84
2021/03/24 00:52:11;;;;;;;22.30;15.02;;;;;;;;;;5039993;28;20554;-82
2021/03/24 00:54:49;;;;;;;20.65;14.20;;;;;;;;;;5053706;28;20055;-82
2021/03/24 00:57:40;;;;;;;18.23;14.27;;;;;;;;;;5058335;28;20021;-83
2021/03/24 01:00:23;;;;;;;20.08;14.63;;;;;;;;;;5036195;28;20037;-83
2021/03/24 01:03:04;;;;;;;21.67;15.20;;;;;;;;;;5048934;28;20029;-83
2021/03/24 01:05:40;;;;;;;19.20;14.05;;;;;;;;;;5071490;28;20082;-82
2021/03/24 01:08:13;;;;;;;19.30;13.90;;;;;;;;;;5054255;28;20028;-82
2021/03/24 01:10:42;;;;;;;19.25;14.35;;;;;;;;;;5022428;28;20040;-82
2021/03/24 01:13:13;;;;;;;19.60;13.60;;;;;;;;;;5072242;28;20067;-82
2021/03/24 01:15:41;;;;;;;19.35;14.23;;;;;;;;;;5054332;28;20076;-82
2021/03/24 01:18:08;;;;;;;18.75;14.10;;;;;;;;;;5038784;28;20029;-81
2021/03/24 01:20:37;;;;;;;19.33;14.10;;;;;;;;;;5055008;28;20091;-82
2021/03/24 01:23:04;;;;;;;20.67;14.70;;;;;;;;;;5055254;28;20035;-82
2021/03/24 01:25:31;;;;;;;19.77;14.13;;;;;;;;;;5054379;28;20028;-82
2021/03/24 01:27:57;;;;;;;20.15;15.43;;;;;;;;;;5037289;28;20119;-82
2021/03/24 01:30:30;;;;;;;20.90;14.35;;;;;;;;;;5041543;28;20017;-82
2021/03/24 01:32:59;;;;;;;20.23;15.15;;;;;;;;;;5071707;28;20032;-82
2021/03/24 01:35:39;;;;;;;20.25;14.10;;;;;;;;;;5055783;28;20043;-82
2021/03/24 01:38:26;;;;;;;20.08;14.60;;;;;;;;;;5072377;28;20043;-83
2021/03/24 01:40:57;;;;;;;21.67;14.85;;;;;;;;;;5055001;28;20495;-81
2021/03/24 01:43:39;;;;;;;17.63;13.20;;;;;;;;;;5037132;28;20033;-82
2021/03/24 01:46:28;;;;;;;20.73;13.85;;;;;;;;;;5067518;28;20044;-82
2021/03/24 01:49:53;;;;;;;20.58;13.80;;;;;;;;;;5049837;28;20033;-84
2021/03/24 01:52:19;;;;;;;19.02;13.55;;;;;;;;;;4958996;29;20034;-83
2021/03/24 01:54:45;;;;;;;17.75;13.40;;;;;;;;;;4952187;29;20035;-82
2021/03/24 01:57:23;;;;;;;18.52;13.25;;;;;;;;;;4964899;29;20027;-83
2021/03/24 02:00:12;;;;;;;19.55;13.52;;;;;;;;;;4932992;29;20030;-84
2021/03/24 02:02:40;;;;;;;20.95;13.93;;;;;;;;;;4965963;29;20063;-84
2021/03/24 02:05:07;;;;;;;17.58;13.07;;;;;;;;;;4961309;29;20046;-82
2021/03/24 02:07:50;;;;;;;21.50;14.02;;;;;;;;;;4949824;29;20274;-84
2021/03/24 02:11:03;;;;;;;20.38;14.48;;;;;;;;;;4932877;29;20099;-83
2021/03/24 02:13:36;;;;;;;19.77;13.65;;;;;;;;;;4955293;29;20051;-83
2021/03/24 02:16:07;;;;;;;20.73;15.27;;;;;;;;;;4935886;29;20043;-83
2021/03/24 02:18:34;;;;;;;;;;;;;;;;;;4936440;29;20043;-83
2021/03/24 02:21:10;;;;;;;22.52;14.82;;;;;;;;;;4955563;29;19922;-83
2021/03/24 02:23:57;;;;;;;20.05;14.68;;;;;;;;;;4927063;29;20088;-83
2021/03/24 02:26:36;;;;;;;20.13;14.75;;;;;;;;;;4972114;28;20031;-82
2021/03/24 02:29:04;;;;;;;19.60;14.40;;;;;;;;;;5041310;28;20033;-82
2021/03/24 02:31:32;;;;;;;19.88;14.15;;;;;;;;;;5042200;28;20025;-82
2021/03/24 02:34:01;;;;;;;18.85;13.85;;;;;;;;;;5042144;28;20464;-83
2021/03/24 02:36:27;;;;;;;19.25;14.40;;;;;;;;;;5073595;28;20037;-83
2021/03/24 02:38:58;;;;;;;20.10;14.77;;;;;;;;;;5059020;28;20019;-83
2021/03/24 02:41:24;;;;;;;21.50;15.30;;;;;;;;;;5057144;28;20043;-82
2021/03/24 02:43:50;;;;;;;21.08;13.75;;;;;;;;;;5005582;28;20516;-83
2021/03/24 02:46:17;;;;;;;18.95;14.63;;;;;;;;;;5037602;28;20040;-83
2021/03/24 02:48:44;;;;;;;20.45;14.55;;;;;;;;;;5038772;28;20148;-83
2021/03/24 02:51:34;;;;;;;19.90;14.50;;;;;;;;;;5040110;28;20033;-83
2021/03/24 02:54:28;;;;;;;18.40;14.00;;;;;;;;;;5061684;28;20005;-82
2021/03/24 02:56:55;;;;;;;20.25;14.18;;;;;;;;;;5045221;28;20037;-83
2021/03/24 02:59:22;;;;;;;17.00;13.20;;;;;;;;;;5036776;28;20037;-83
2021/03/24 03:02:14;;;;;;;17.48;13.48;;;;;;;;;;5074820;28;20036;-83
2021/03/24 03:04:55;;;;;;;20.10;14.35;;;;;;;;;;5057651;28;20088;-83
2021/03/24 03:07:31;;;;;;;22.30;14.10;;;;;;;;;;5053894;28;20036;-83
2021/03/24 03:10:06;;;;;;;19.58;13.38;;;;;;;;;;5040219;28;20029;-83
2021/03/24 03:12:37;;;;;;;19.88;14.82;;;;;;;;;;5038424;28;20028;-84
2021/03/24 03:15:22;;;;;;;20.83;14.48;;;;;;;;;;5052368;28;20069;-83
2021/03/24 03:18:12;;;;;;;23.00;14.60;;;;;;;;;;5051944;28;20059;-82
2021/03/24 03:20:46;;;;;;;19.92;14.80;;;;;;;;;;5011571;28;20042;-83
2021/03/24 03:23:21;;;;;;;18.45;14.60;;;;;;;;;;5010735;28;20038;-82
2021/03/24 03:26:13;;;;;;;19.77;14.57;;;;;;;;;;4995025;28;20038;-82
2021/03/24 03:28:45;;;;;;;21.73;14.80;;;;;;;;;;4998291;28;20042;-82
2021/03/24 03:31:14;;;;;;;20.52;14.77;;;;;;;;;;4998909;28;20097;-82
2021/03/24 03:33:48;;;;;;;20.98;14.90;;;;;;;;;;5031578;28;20101;-82
2021/03/24 03:36:38;;;;;;;19.25;13.75;;;;;;;;;;5030165;28;20098;-84
2021/03/24 03:39:31;;;;;;;19.73;13.70;;;;;;;;;;5015311;28;20037;-83
2021/03/24 03:41:57;;;;;;;19.33;14.43;;;;;;;;;;5032555;28;20061;-82
2021/03/24 03:44:29;;;;;;;19.27;13.80;;;;;;;;;;4994832;28;20048;-83
2021/03/24 03:47:02;;;;;;;18.45;13.85;;;;;;;;;;5012361;28;20049;-83
2021/03/24 03:49:31;;;;;;;16.63;13.55;;;;;;;;;;4999938;28;20030;-82
2021/03/24 03:52:30;;;;;;;16.92;13.05;;;;;;;;;;4996815;28;20102;-82
2021/03/24 03:55:33;;;;;;;20.00;13.48;;;;;;;;;;4997681;28;20034;-82
2021/03/24 03:58:11;;;;;;;19.67;13.90;;;;;;;;;;5053249;28;20037;-83
2021/03/24 04:00:53;;;;;;;19.30;14.68;;;;;;;;;;5072986;28;20033;-82
2021/03/24 04:03:28;;;;;;;19.58;14.30;;;;;;;;;;5068054;28;20021;-82
2021/03/24 04:06:05;;;;;;;20.55;14.40;;;;;;;;;;5054253;28;20018;-82
2021/03/24 04:08:36;;;;;;;19.23;13.82;;;;;;;;;;5036651;28;20056;-83
2021/03/24 04:11:11;;;;;;;17.73;13.15;;;;;;;;;;5036515;28;20033;-82
2021/03/24 04:13:45;;;;;;;16.63;14.05;;;;;;;;;;5048744;28;20089;-83
2021/03/24 04:16:13;;;;;;;19.92;13.27;;;;;;;;;;5054129;28;20063;-83
2021/03/24 04:18:53;;;;;;;19.95;14.18;;;;;;;;;;5054578;28;20040;-83
2021/03/24 04:21:21;;;;;;;17.42;13.73;;;;;;;;;;5072692;28;20021;-82
2021/03/24 04:23:55;;;;;;;19.60;14.10;;;;;;;;;;5036056;28;20033;-82
2021/03/24 04:26:26;;;;;;;20.63;13.68;;;;;;;;;;5037068;28;20100;-82
2021/03/24 04:28:54;;;;;;;;;;;;;;;;;;5055398;28;20043;-82
2021/03/24 04:31:24;;;;;;;21.48;14.15;;;;;;;;;;5055555;28;19908;-82
2021/03/24 04:33:56;;;;;;;18.27;13.85;;;;;;;;;;5052900;28;20064;-83
2021/03/24 04:36:36;;;;;;;18.23;13.07;;;;;;;;;;5071480;28;20032;-83
2021/03/24 04:39:51;;;;;;;21.65;15.07;;;;;;;;;;5053591;28;20029;-83
2021/03/24 04:42:57;;;;;;;20.88;13.55;;;;;;;;;;4971862;29;20147;-83
2021/03/24 04:45:50;;;;;;;20.50;14.25;;;;;;;;;;4942479;29;20058;-82
2021/03/24 04:48:42;;;;;;;18.98;14.40;;;;;;;;;;4972787;29;20035;-82
2021/03/24 04:51:36;;;;;;;21.60;14.65;;;;;;;;;;4970026;29;20031;-84
2021/03/24 04:54:37;;;;;;;18.70;14.13;;;;;;;;;;4936674;29;20125;-82
2021/03/24 04:57:28;;;;;;;22.45;14.23;;;;;;;;;;4938215;29;20099;-82
2021/03/24 05:00:19;;;;;;;18.30;13.90;;;;;;;;;;4935738;29;20452;-83
2021/03/24 05:03:09;;;;;;;17.60;13.85;;;;;;;;;;4952918;29;20148;-82
2021/03/24 05:05:38;;;;;;;19.27;13.95;;;;;;;;;;4952733;29;20035;-83
2021/03/24 05:08:23;;;;;;;19.67;14.45;;;;;;;;;;4926044;29;20569;-82
2021/03/24 05:10:51;;;;;;;20.38;15.60;;;;;;;;;;4965362;29;20095;-83
2021/03/24 05:13:53;;;;;;;20.95;14.82;;;;;;;;;;4957046;29;20044;-83
2021/03/24 05:16:40;;;;;;;18.58;15.13;;;;;;;;;;4954154;29;20059;-82
2021/03/24 05:19:26;;;;;;;21.45;14.77;;;;;;;;;;5008302;28;20046;-83
2021/03/24 05:22:25;;;;;;;23.02;15.27;;;;;;;;;;5029037;28;20033;-82
2021/03/24 05:25:38;;;;;;;23.40;15.77;;;;;;;;;;5042650;28;20045;-82
2021/03/24 05:28:36;;;;;;;24.55;15.38;;;;;;;;;;5053275;28;20041;-84
2021/03/24 05:31:30;;;;;;;21.17;15.20;;;;;;;;;;5052138;28;20081;-83
2021/03/24 05:34:07;;;;;;;22.00;15.18;;;;;;;;;;5051807;28;20046;-83
2021/03/24 05:36:44;;;;;;;18.95;14.82;;;;;;;;;;5034794;28;20092;-83
2021/03/24 05:39:51;;;;;;;25.05;15.68;;;;;;;;;;5048867;28;20037;-83
2021/03/24 05:42:53;;;;;;;20.70;15.57;;;;;;;;;;4971658;29;20035;-83
2021/03/24 05:45:43;;;;;;;22.92;15.32;;;;;;;;;;4971153;29;20082;-82
2021/03/24 05:48:34;;;;;;;20.48;15.27;;;;;;;;;;4971295;29;20426;-84
2021/03/24 05:51:50;;;;;;;24.23;15.98;;;;;;;;;;4982780;28;20102;-84
2021/03/24 05:54:54;;;;;;;19.73;14.68;;;;;;;;;;4937656;29;20101;-83
2021/03/24 05:57:46;;;;;;;21.60;15.23;;;;;;;;;;4951531;29;20077;-83
2021/03/24 06:00:21;;;;;;;23.52;15.45;;;;;;;;;;4930274;29;20036;-84
2021/03/24 06:03:03;;;;;;;25.70;15.85;;;;;;;;;;4923935;29;20044;-84
2021/03/24 06:06:18;;;;;;;22.05;15.45;;;;;;;;;;4931475;29;20040;-84
2021/03/24 06:09:39;;;;;;;23.55;15.60;;;;;;;;;;4892284;29;20053;-84
2021/03/24 06:12:59;;;;;;;23.10;16.00;;;;;;;;;;4832103;29;20042;-83
2021/03/24 06:15:49;;;;;;;24.33;15.20;;;;;;;;;;4790957;30;20063;-84
2021/03/24 06:18:25;;;;;;;26.00;16.88;;;;;;;;;;4798314;30;20043;-83
2021/03/24 06:21:18;;;;;;;23.92;14.93;;;;;;;;;;4800214;30;20080;-84
2021/03/24 06:24:07;;;;;;;18.80;14.80;;;;;;;;;;4822549;29;20050;-83
2021/03/24 06:26:50;;;;;;;20.73;15.25;;;;;;;;;;4826915;29;20038;-84
2021/03/24 06:30:02;;;;;;;20.45;15.60;;;;;;;;;;4802223;29;20041;-84
2021/03/24 06:33:19;;;;;;;23.65;16.15;;;;;;;;;;4857234;29;20026;-84
2021/03/24 06:36:45;;;;;;;21.52;15.15;;;;;;;;;;4828389;29;20038;-84
2021/03/24 06:40:08;;;;;;;20.05;16.02;;;;;;;;;;4803560;30;20119;-85
2021/03/24 06:43:11;;;;;;;20.13;15.57;;;;;;;;;;4796496;29;20047;-84
2021/03/24 06:46:19;;;;;;;23.00;16.20;;;;;;;;;;4816020;29;20098;-85
2021/03/24 06:49:08;;;;;;;23.73;16.40;;;;;;;;;;4797803;29;20034;-85
2021/03/24 06:52:14;;;;;;;22.27;16.58;;;;;;;;;;4840950;29;20095;-85
2021/03/24 06:55:08;;;;;;;;;;;;;;;;;;4839729;29;20034;-85
2021/03/24 06:58:16;;;;;;;25.88;16.60;;;;;;;;;;4848061;29;19904;-85
2021/03/24 07:01:25;;;;;;;24.52;17.13;;;;;;;;;;4863332;29;20106;-85
2021/03/24 07:04:32;;;;;;;27.27;16.58;;;;;;;;;;4845590;29;20091;-86
2021/03/24 07:07:55;;;;;;;25.67;16.38;;;;;;;;;;4840400;29;20045;-84
2021/03/24 07:11:22;;;;;;;25.63;17.60;;;;;;;;;;4804084;30;20043;-86
2021/03/24 07:14:36;;;;;;;26.20;16.95;;;;;;;;;;4789011;30;20028;-84
2021/03/24 07:17:52;;;;;;;24.42;17.75;;;;;;;;;;4820438;29;20042;-85
2021/03/24 07:20:52;;;;;;;23.80;16.80;;;;;;;;;;4825132;29;20342;-85
2021/03/24 07:23:38;;;;;;;27.00;17.83;;;;;;;;;;4844956;29;20115;-84
2021/03/24 07:26:17;;;;;;;21.52;16.42;;;;;;;;;;4872249;29;20049;-85
2021/03/24 07:29:20;;;;;;;24.60;17.77;;;;;;;;;;4880407;29;20074;-85
2021/03/24 07:32:09;;;;;;;24.80;17.35;;;;;;;;;;4894523;29;20044;-86
2021/03/24 07:35:02;;;;;;;22.20;17.20;;;;;;;;;;4901909;29;20029;-85
2021/03/24 07:38:37;;;;;;;30.45;17.63;;;;;;;;;;4890266;29;20122;-85
2021/03/24 07:41:28;;;;;;;;;;;;;;;;;;4866137;29;20050;-86
2021/03/24 07:44:51;;;;;;;26.73;17.17;;;;;;;;;;4876886;29;19941;-86
2021/03/24 07:48:04;;;;;;;25.98;18.00;;;;;;;;;;4883288;29;20034;-86
2021/03/24 07:51:15;;;;;;;24.50;16.40;;;;;;;;;;4910971;29;20043;-84
2021/03/24 07:54:28;;;;;;;28.27;17.45;;;;;;;;;;4919536;29;20043;-85
2021/03/24 07:57:25;;;;;;;24.50;17.88;;;;;;;;;;4915986;29;20043;-86
2021/03/24 08:00:30;;;;;;;25.48;17.58;;;;;;;;;;4891484;29;20056;-86
2021/03/24 08:03:24;;;;;;;27.23;18.13;;;;;;;;;;4903232;29;20048;-86
2021/03/24 08:06:38;;;;;;;24.15;18.13;;;;;;;;;;4903988;29;20067;-85
2021/03/24 08:09:45;;;;;;;26.58;17.98;;;;;;;;;;4904230;29;20036;-86
2021/03/24 08:13:09;;;;;;;24.50;17.23;;;;;;;;;;4921425;29;20043;-86
2021/03/24 11:55:24;;;;;;;17.77;11.10;;;;;;;;;;4963207;29;20120;-83
2021/03/24 12:01:57;;;;;;;17.92;8.50;;;;;;;;;;4866478;29;20090;-83
2021/03/24 12:04:45;;;;;;;13.43;7.45;;;;;;;;;;4846529;29;20084;-83
2021/03/24 12:07:36;;;;;;;13.25;6.20;;;;;;;;;;4841443;29;20033;-81
2021/03/24 12:10:36;;;;;;;10.77;6.70;;;;;;;;;;4841385;29;20549;-83
2021/03/24 12:13:52;;;;;;;10.97;6.87;;;;;;;;;;4843448;29;20126;-83
2021/03/24 12:16:19;;;;;;;10.95;7.32;;;;;;;;;;4887570;29;20045;-82
2021/03/24 12:19:06;;;;;;;11.50;7.72;;;;;;;;;;4863360;29;20046;-83
2021/03/24 12:21:33;;;;;;;14.48;10.52;;;;;;;;;;4880206;29;20041;-83
2021/03/24 12:24:29;;;;;;;12.00;8.25;;;;;;;;;;4872343;29;20053;-82
2021/03/24 12:27:23;;;;;;;11.88;7.05;;;;;;;;;;4880880;29;20056;-83
2021/03/24 12:30:26;;;;;;;12.50;7.25;;;;;;;;;;4875292;29;20033;-84
2021/03/24 12:33:29;;;;;;;10.80;6.95;;;;;;;;;;4872172;29;20041;-82
2021/03/24 12:37:11;;;;;;;12.90;6.20;;;;;;;;;;4902535;29;20068;-83
2021/03/24 12:40:10;;;;;;;9.77;6.00;;;;;;;;;;4871206;29;20068;-82
2021/03/24 12:42:39;;;;;;;13.52;7.32;;;;;;;;;;5004652;28;20052;-81
2021/03/24 12:45:30;;;;;;;18.67;7.60;;;;;;;;;;5019652;28;20041;-83
2021/03/24 12:48:20;;;;;;;10.47;6.87;;;;;;;;;;4996189;28;20041;-82
2021/03/24 12:51:06;;;;;;;9.77;6.97;;;;;;;;;;5027225;28;20134;-83
2021/03/24 15:19:37;;;;;;;15.05;6.32;;;;;;;;;;5072535;26;20565;-89
2021/03/24 15:22:11;;;;;;;10.35;6.47;;;;;;;;;;5056624;28;20132;-91
2021/03/24 15:25:10;;;;;;;10.43;5.75;;;;;;;;;;5036606;28;20047;-88
2021/03/24 15:28:00;;;;;;;10.25;6.07;;;;;;;;;;5056392;28;20058;-90
2021/03/24 15:30:32;;;;;;;7.68;5.57;;;;;;;;;;5040028;28;20119;-89
2021/03/24 15:33:14;;;;;;;11.88;6.05;;;;;;;;;;5039615;28;20021;-89
2021/03/24 15:35:57;;;;;;;7.68;5.40;;;;;;;;;;5055631;28;20031;-89
2021/03/24 15:38:35;;;;;;;8.48;5.65;;;;;;;;;;5038500;28;20556;-91
2021/03/24 15:41:15;;;;;;;8.95;5.25;;;;;;;;;;5030335;28;20079;-90
2021/03/24 15:43:47;;;;;;;7.80;5.28;;;;;;;;;;5053650;28;20044;-91
2021/03/24 15:46:21;;;;;;;10.13;5.13;;;;;;;;;;5054562;28;20029;-89
2021/03/24 15:49:31;;;;;;;11.73;5.28;;;;;;;;;;5053860;28;20032;-90
2021/03/24 15:52:09;;;;;;;10.30;5.28;;;;;;;;;;5055622;28;20043;-90
2021/03/24 15:54:37;;;;;;;10.82;5.30;;;;;;;;;;5054094;28;20040;-91
2021/03/24 15:57:40;;;;;;;13.38;5.93;;;;;;;;;;5020385;28;20021;-89
2021/03/24 16:00:31;;;;;;;11.68;5.60;;;;;;;;;;5054076;28;20107;-91
2021/03/24 16:03:15;;;;;;;9.38;6.22;;;;;;;;;;4977630;28;20383;-88
2021/03/24 16:05:51;;;;;;;8.60;5.13;;;;;;;;;;4979582;28;20078;-91
2021/03/24 16:08:19;;;;;;;7.82;4.75;;;;;;;;;;4966582;28;20034;-89
2021/03/24 16:10:49;;;;;;;7.68;5.28;;;;;;;;;;4973539;28;20042;-91
2021/03/24 16:13:24;;;;;;;10.77;6.22;;;;;;;;;;4942283;28;20041;-90
2021/03/24 16:16:14;;;;;;;9.55;6.05;;;;;;;;;;4944907;28;20035;-91
2021/03/24 16:19:27;;;;;;;8.38;6.05;;;;;;;;;;4970388;28;20063;-89
2021/03/24 16:21:55;;;;;;;10.25;6.07;;;;;;;;;;4954562;28;20174;-92
2021/03/24 16:24:39;;;;;;;11.27;5.85;;;;;;;;;;4975083;28;20155;-91
2021/03/24 16:27:10;;;;;;;9.38;5.72;;;;;;;;;;4976195;28;20042;-91
2021/03/24 16:29:41;;;;;;;10.13;5.47;;;;;;;;;;4962328;28;20045;-91
2021/03/24 16:32:11;;;;;;;8.98;5.18;;;;;;;;;;4957050;28;20122;-90
2021/03/24 16:35:14;;;;;;;10.68;5.57;;;;;;;;;;4957429;28;20043;-91
2021/03/24 16:37:52;;;;;;;8.18;5.38;;;;;;;;;;4961859;28;20034;-90
2021/03/24 16:40:48;;;;;;;8.80;5.57;;;;;;;;;;5003893;28;20033;-90
2021/03/24 16:43:32;;;;;;;9.02;5.25;;;;;;;;;;5033323;28;20530;-90
2021/03/24 22:47:35;;;;;;;14.10;10.05;;;;;;;;;;5060514;28;20353;-86
2021/03/24 22:54:07;;;;;;;14.65;10.48;;;;;;;;;;5491713;22;20023;-85
2021/03/24 23:48:41;;;;;;;14.38;10.57;;;;;;;;;;4981020;28;20054;-86
2021/03/24 23:55:45;;;;;;;17.30;11.80;;;;;;;;;;4997886;28;20103;-85
2021/03/24 23:58:49;;;;;;;14.68;11.55;;;;;;;;;;4933742;28;20110;-84
